Time;durP1;ratioP1;P1;durP2;ratioP2;P2;SDS_P1;SDS_P2;PMS_P1;PMS_P2;Temp;Humidity;BMP_temperature;BMP_pressure;BME280_temperature;BME280_humidity;BME280_pressure;Samples;Min_cycle;Max_cycle;Signal;HPM_P1;HPM_P2
2021/08/13 00:01:50;;;;;;;7.40;1.73;;;;;;;;;;5039411;28;20040;-77
2021/08/13 00:04:35;;;;;;;5.80;1.65;;;;;;;;;;5044001;28;20044;-76
2021/08/13 00:07:19;;;;;;;3.92;1.30;;;;;;;;;;5042583;28;20040;-76
2021/08/13 00:10:04;;;;;;;5.53;1.48;;;;;;;;;;5028073;28;20047;-77
2021/08/13 00:12:49;;;;;;;4.30;1.35;;;;;;;;;;5039071;28;20817;-77
2021/08/13 00:15:33;;;;;;;5.13;1.80;;;;;;;;;;5028317;28;20120;-76
2021/08/13 00:18:18;;;;;;;6.72;1.83;;;;;;;;;;5039761;28;20130;-77
2021/08/13 00:21:02;;;;;;;6.90;1.90;;;;;;;;;;5042064;28;20044;-77
2021/08/13 00:23:48;;;;;;;3.78;1.50;;;;;;;;;;5035453;28;20118;-78
2021/08/13 00:26:32;;;;;;;6.78;1.60;;;;;;;;;;5040300;28;20044;-77
2021/08/13 00:29:17;;;;;;;5.65;1.67;;;;;;;;;;5041512;28;20513;-75
2021/08/13 00:32:01;;;;;;;5.43;1.50;;;;;;;;;;5026753;28;20700;-75
2021/08/13 00:34:46;;;;;;;9.73;1.80;;;;;;;;;;5026979;28;20051;-75
2021/08/13 00:37:31;;;;;;;5.43;1.63;;;;;;;;;;5039880;28;20036;-75
2021/08/13 00:40:16;;;;;;;6.18;1.50;;;;;;;;;;5037850;28;20086;-75
2021/08/13 00:43:00;;;;;;;5.97;1.58;;;;;;;;;;5035190;28;20090;-75
2021/08/13 00:45:45;;;;;;;7.10;1.60;;;;;;;;;;5041757;28;20036;-76
2021/08/13 00:48:29;;;;;;;5.88;1.65;;;;;;;;;;5026487;28;20044;-76
2021/08/13 00:51:14;;;;;;;5.90;1.40;;;;;;;;;;5041596;28;20460;-76
2021/08/13 00:53:59;;;;;;;6.30;1.65;;;;;;;;;;5029807;28;20127;-77
2021/08/13 00:56:44;;;;;;;4.80;1.70;;;;;;;;;;5042859;28;20039;-77
2021/08/13 00:59:28;;;;;;;5.97;1.50;;;;;;;;;;5045085;28;20117;-77
2021/08/13 01:02:13;;;;;;;6.38;1.88;;;;;;;;;;5044701;28;20130;-77
2021/08/13 01:04:57;;;;;;;5.85;1.40;;;;;;;;;;5034702;28;20051;-76
2021/08/13 01:07:42;;;;;;;6.57;1.80;;;;;;;;;;5025773;28;20059;-76
2021/08/13 01:10:26;;;;;;;5.32;1.55;;;;;;;;;;5019069;28;20083;-76
2021/08/13 01:13:15;;;;;;;6.00;1.73;;;;;;;;;;5027227;28;20047;-76
2021/08/13 01:16:01;;;;;;;8.35;1.73;;;;;;;;;;5039656;28;20070;-76
2021/08/13 01:18:46;;;;;;;6.75;1.70;;;;;;;;;;5037097;28;20047;-77
2021/08/13 01:21:33;;;;;;;6.28;1.80;;;;;;;;;;5027452;28;20501;-77
2021/08/13 01:24:22;;;;;;;5.10;1.58;;;;;;;;;;5028769;28;20106;-77
2021/08/13 01:27:27;;;;;;;7.68;1.83;;;;;;;;;;5033685;28;20513;-76
2021/08/13 01:30:12;;;;;;;5.28;1.45;;;;;;;;;;5023322;28;20087;-77
2021/08/13 01:33:01;;;;;;;5.15;1.52;;;;;;;;;;5038865;28;20040;-77
2021/08/13 01:35:46;;;;;;;8.00;1.40;;;;;;;;;;5041680;28;20159;-76
2021/08/13 01:38:31;;;;;;;5.97;1.65;;;;;;;;;;5032455;28;20106;-77
2021/08/13 01:41:16;;;;;;;6.32;1.65;;;;;;;;;;5039843;28;20075;-77
2021/08/13 01:44:01;;;;;;;6.10;1.90;;;;;;;;;;5020804;28;20140;-76
2021/08/13 01:46:46;;;;;;;6.97;2.90;;;;;;;;;;5031348;28;20055;-76
2021/08/13 01:49:32;;;;;;;6.43;1.60;;;;;;;;;;5042020;28;20036;-76
2021/08/13 01:52:16;;;;;;;4.60;1.48;;;;;;;;;;5022315;28;20041;-77
2021/08/13 01:55:01;;;;;;;4.88;1.50;;;;;;;;;;5028742;28;20137;-75
2021/08/13 01:57:46;;;;;;;4.85;1.40;;;;;;;;;;5028069;28;20032;-77
2021/08/13 02:00:30;;;;;;;6.35;1.70;;;;;;;;;;5036847;28;20044;-77
2021/08/13 02:03:15;;;;;;;5.38;1.38;;;;;;;;;;5028468;28;20040;-77
2021/08/13 02:05:59;;;;;;;7.20;1.60;;;;;;;;;;5038084;28;20516;-76
2021/08/13 02:08:44;;;;;;;6.55;1.70;;;;;;;;;;5043268;28;20079;-77
2021/08/13 02:11:28;;;;;;;6.35;1.90;;;;;;;;;;5051767;28;20518;-77
2021/08/13 02:14:13;;;;;;;5.07;1.30;;;;;;;;;;5035726;28;20134;-77
2021/08/13 02:16:58;;;;;;;4.70;1.45;;;;;;;;;;5024885;28;20071;-77
2021/08/13 02:19:45;;;;;;;7.57;1.90;;;;;;;;;;5022793;28;20102;-77
2021/08/13 02:22:29;;;;;;;5.35;1.50;;;;;;;;;;5039217;28;20119;-77
2021/08/13 02:25:14;;;;;;;5.47;1.55;;;;;;;;;;5024766;28;20116;-76
2021/08/13 02:27:58;;;;;;;7.35;1.90;;;;;;;;;;5042273;28;20082;-76
2021/08/13 02:30:43;;;;;;;5.47;1.65;;;;;;;;;;5034159;28;20051;-77
2021/08/13 02:33:27;;;;;;;6.97;1.42;;;;;;;;;;5043479;28;20055;-76
2021/08/13 02:36:14;;;;;;;8.00;1.45;;;;;;;;;;5031374;28;20122;-76
2021/08/13 02:39:04;;;;;;;6.63;1.80;;;;;;;;;;5047535;28;20162;-77
2021/08/13 02:41:48;;;;;;;4.75;1.42;;;;;;;;;;5037087;28;20088;-77
2021/08/13 02:44:33;;;;;;;6.80;1.55;;;;;;;;;;5044906;28;20654;-76
2021/08/13 02:47:18;;;;;;;5.50;1.42;;;;;;;;;;5046129;28;20035;-76
2021/08/13 02:50:04;;;;;;;6.72;1.40;;;;;;;;;;5030919;28;20572;-77
2021/08/13 02:52:49;;;;;;;6.90;1.75;;;;;;;;;;5043148;28;20178;-76
2021/08/13 02:55:34;;;;;;;7.50;1.40;;;;;;;;;;5048114;28;20044;-76
2021/08/13 02:58:20;;;;;;;7.15;1.70;;;;;;;;;;5033957;28;20494;-77
2021/08/13 03:01:07;;;;;;;4.82;1.38;;;;;;;;;;5035467;28;20083;-77
2021/08/13 03:03:52;;;;;;;5.25;1.45;;;;;;;;;;5033739;28;20512;-76
2021/08/13 03:06:38;;;;;;;6.68;1.70;;;;;;;;;;5027778;28;20121;-76
2021/08/13 03:09:23;;;;;;;7.10;1.50;;;;;;;;;;5047124;28;20550;-76
2021/08/13 03:12:09;;;;;;;7.97;2.22;;;;;;;;;;5040773;28;20097;-76
2021/08/13 03:14:54;;;;;;;9.57;1.80;;;;;;;;;;5029581;28;20523;-76
2021/08/13 03:17:39;;;;;;;7.20;1.63;;;;;;;;;;5032418;28;20068;-76
2021/08/13 03:20:24;;;;;;;6.50;1.90;;;;;;;;;;5049402;28;20066;-78
2021/08/13 03:23:08;;;;;;;5.80;1.50;;;;;;;;;;5047129;28;20094;-77
2021/08/13 03:25:53;;;;;;;5.15;1.33;;;;;;;;;;5029859;28;20068;-77
2021/08/13 03:28:38;;;;;;;5.10;1.40;;;;;;;;;;5027322;28;20040;-76
2021/08/13 03:31:35;;;;;;;6.13;1.40;;;;;;;;;;5045498;28;20090;-77
2021/08/13 03:34:20;;;;;;;4.38;1.92;;;;;;;;;;5045362;28;20075;-75
2021/08/13 03:37:04;;;;;;;6.25;1.50;;;;;;;;;;5018449;28;20152;-76
2021/08/13 03:39:49;;;;;;;7.20;1.50;;;;;;;;;;5039789;28;20037;-76
2021/08/13 03:42:34;;;;;;;6.22;1.60;;;;;;;;;;5027086;28;20079;-76
2021/08/13 03:45:18;;;;;;;4.35;1.48;;;;;;;;;;5036955;28;20495;-76
2021/08/13 03:48:03;;;;;;;6.93;1.70;;;;;;;;;;5040274;28;20104;-76
2021/08/13 03:50:47;;;;;;;6.93;1.42;;;;;;;;;;5024982;28;20090;-76
2021/08/13 03:53:32;;;;;;;3.88;1.48;;;;;;;;;;5039054;28;20067;-76
2021/08/13 03:56:16;;;;;;;7.07;1.35;;;;;;;;;;5032008;28;20043;-76
2021/08/13 03:59:01;;;;;;;6.63;1.77;;;;;;;;;;5034718;28;20079;-76
2021/08/13 04:01:46;;;;;;;5.68;1.40;;;;;;;;;;5037543;28;20098;-76
2021/08/13 04:04:31;;;;;;;8.07;1.80;;;;;;;;;;5042580;28;20067;-77
2021/08/13 04:07:15;;;;;;;7.55;1.80;;;;;;;;;;5040937;28;20076;-76
2021/08/13 04:10:00;;;;;;;7.22;1.65;;;;;;;;;;5052292;28;20051;-77
2021/08/13 04:12:44;;;;;;;5.53;1.52;;;;;;;;;;5038608;28;20039;-77
2021/08/13 04:15:29;;;;;;;8.63;1.35;;;;;;;;;;5026396;28;20056;-76
2021/08/13 04:18:13;;;;;;;6.15;1.25;;;;;;;;;;5027972;28;20485;-76
2021/08/13 04:20:58;;;;;;;7.00;1.70;;;;;;;;;;5043272;28;20075;-76
2021/08/13 04:23:42;;;;;;;4.85;1.45;;;;;;;;;;5046993;28;20071;-76
2021/08/13 04:26:27;;;;;;;5.40;1.50;;;;;;;;;;5046246;28;20075;-76
2021/08/13 04:29:11;;;;;;;6.05;1.90;;;;;;;;;;5057485;28;20405;-76
2021/08/13 04:31:56;;;;;;;5.63;1.25;;;;;;;;;;5046026;28;20307;-77
2021/08/13 04:34:40;;;;;;;3.63;1.40;;;;;;;;;;5044262;28;20094;-77
2021/08/13 04:37:25;;;;;;;6.00;1.40;;;;;;;;;;5029357;28;20087;-76
2021/08/13 04:40:09;;;;;;;4.78;1.33;;;;;;;;;;5029994;28;20035;-76
2021/08/13 04:42:54;;;;;;;6.15;1.55;;;;;;;;;;5032800;28;20064;-75
2021/08/13 04:45:39;;;;;;;5.38;1.50;;;;;;;;;;5045333;28;20039;-76
2021/08/13 04:48:23;;;;;;;7.53;1.67;;;;;;;;;;5029542;28;20056;-76
2021/08/13 04:51:08;;;;;;;6.38;1.45;;;;;;;;;;5039339;28;20066;-76
2021/08/13 04:53:52;;;;;;;6.05;1.52;;;;;;;;;;5023704;28;20111;-77
2021/08/13 04:56:37;;;;;;;4.93;1.50;;;;;;;;;;5025113;28;20040;-77
2021/08/13 04:59:22;;;;;;;6.85;1.52;;;;;;;;;;5042461;28;20467;-77
2021/08/13 05:02:06;;;;;;;6.28;1.33;;;;;;;;;;5028300;28;20101;-77
2021/08/13 05:05:00;;;;;;;5.05;1.70;;;;;;;;;;5049974;28;20146;-77
2021/08/13 05:07:45;;;;;;;4.85;1.55;;;;;;;;;;5034179;28;20128;-77
2021/08/13 05:10:29;;;;;;;8.45;1.65;;;;;;;;;;5038582;28;20071;-77
2021/08/13 05:13:14;;;;;;;5.25;1.30;;;;;;;;;;5043090;28;20048;-77
2021/08/13 05:15:58;;;;;;;6.97;1.73;;;;;;;;;;5026223;28;20083;-77
2021/08/13 05:18:43;;;;;;;5.18;1.30;;;;;;;;;;5034428;28;20044;-77
2021/08/13 05:21:27;;;;;;;4.97;1.33;;;;;;;;;;5039924;28;20401;-77
2021/08/13 05:24:12;;;;;;;4.45;1.40;;;;;;;;;;5024287;28;20091;-77
2021/08/13 05:26:56;;;;;;;5.55;1.73;;;;;;;;;;5039552;28;20591;-77
2021/08/13 05:29:41;;;;;;;5.20;1.45;;;;;;;;;;5042215;28;20139;-77
2021/08/13 05:32:26;;;;;;;5.82;1.23;;;;;;;;;;5039343;28;20133;-77
2021/08/13 05:35:11;;;;;;;4.85;1.40;;;;;;;;;;5039699;28;20127;-76
2021/08/13 05:37:58;;;;;;;8.88;1.70;;;;;;;;;;5028184;28;20068;-76
2021/08/13 05:40:43;;;;;;;5.15;1.30;;;;;;;;;;5037157;28;20125;-76
2021/08/13 05:43:28;;;;;;;5.15;1.77;;;;;;;;;;5036991;28;20035;-77
2021/08/13 05:46:14;;;;;;;3.88;1.35;;;;;;;;;;5039658;28;20036;-77
2021/08/13 05:49:00;;;;;;;6.45;1.48;;;;;;;;;;5051899;28;20188;-77
2021/08/13 05:51:45;;;;;;;6.47;2.00;;;;;;;;;;5055494;28;20040;-76
2021/08/13 05:54:31;;;;;;;5.60;1.65;;;;;;;;;;5040730;28;20064;-77
2021/08/13 05:57:15;;;;;;;6.57;1.60;;;;;;;;;;5028833;28;20040;-77
2021/08/13 06:00:00;;;;;;;7.07;2.28;;;;;;;;;;5036379;28;20421;-77
2021/08/13 06:03:11;;;;;;;4.85;1.60;;;;;;;;;;5035393;28;20047;-77
2021/08/13 06:05:55;;;;;;;3.35;1.13;;;;;;;;;;5047239;28;20567;-77
2021/08/13 06:08:40;;;;;;;4.97;1.65;;;;;;;;;;5054602;28;20202;-77
2021/08/13 06:11:24;;;;;;;3.58;1.40;;;;;;;;;;5028277;28;20044;-77
2021/08/13 06:14:09;;;;;;;6.57;1.40;;;;;;;;;;5033198;28;20039;-76
2021/08/13 06:16:54;;;;;;;5.15;1.35;;;;;;;;;;5047968;28;20167;-76
2021/08/13 06:19:38;;;;;;;7.07;1.50;;;;;;;;;;5047646;28;20047;-76
2021/08/13 06:22:23;;;;;;;6.82;1.50;;;;;;;;;;5056283;28;20036;-76
2021/08/13 06:25:08;;;;;;;6.63;1.50;;;;;;;;;;5061983;28;20048;-76
2021/08/13 06:27:52;;;;;;;9.00;2.10;;;;;;;;;;5032371;28;20091;-77
2021/08/13 06:30:37;;;;;;;5.85;1.73;;;;;;;;;;5041209;28;20091;-76
2021/08/13 06:33:23;;;;;;;6.72;1.55;;;;;;;;;;5044580;28;20895;-77
2021/08/13 06:36:07;;;;;;;7.35;1.35;;;;;;;;;;5027387;28;20056;-77
2021/08/13 06:38:52;;;;;;;5.68;1.73;;;;;;;;;;5051186;28;20123;-77
2021/08/13 06:41:36;;;;;;;3.95;1.50;;;;;;;;;;5045548;28;20658;-77
2021/08/13 06:44:21;;;;;;;5.15;1.80;;;;;;;;;;5045818;28;20048;-77
2021/08/13 06:47:05;;;;;;;6.03;1.73;;;;;;;;;;5047718;28;20040;-77
2021/08/13 06:49:50;;;;;;;6.35;1.92;;;;;;;;;;5031521;28;20043;-76
2021/08/13 06:52:35;;;;;;;5.82;1.48;;;;;;;;;;5047725;28;20072;-77
2021/08/13 06:55:20;;;;;;;9.27;2.00;;;;;;;;;;5045692;28;20083;-77
2021/08/13 06:58:04;;;;;;;6.60;1.40;;;;;;;;;;5028794;28;20037;-76
2021/08/13 07:00:49;;;;;;;4.13;1.52;;;;;;;;;;5046288;28;20040;-75
2021/08/13 07:03:34;;;;;;;6.75;1.38;;;;;;;;;;5044982;28;20079;-75
2021/08/13 07:06:18;;;;;;;6.68;1.60;;;;;;;;;;5052135;28;20035;-75
2021/08/13 07:09:03;;;;;;;6.50;1.77;;;;;;;;;;5055393;28;20791;-75
2021/08/13 07:11:47;;;;;;;4.90;1.50;;;;;;;;;;5045509;28;20396;-75
2021/08/13 07:14:32;;;;;;;4.53;1.65;;;;;;;;;;5057194;28;20122;-76
2021/08/13 07:17:16;;;;;;;7.30;1.42;;;;;;;;;;5055123;28;20039;-75
2021/08/13 07:20:01;;;;;;;5.55;1.67;;;;;;;;;;5046946;28;20044;-75
2021/08/13 07:22:46;;;;;;;5.90;2.03;;;;;;;;;;5044708;28;20055;-75
2021/08/13 07:25:30;;;;;;;4.18;1.42;;;;;;;;;;5030902;28;20036;-75
2021/08/13 07:28:15;;;;;;;7.50;1.48;;;;;;;;;;5046681;28;20509;-75
2021/08/13 07:31:00;;;;;;;5.63;1.20;;;;;;;;;;5049633;28;20480;-75
2021/08/13 07:33:44;;;;;;;7.07;1.55;;;;;;;;;;5044473;28;20048;-75
2021/08/13 07:36:29;;;;;;;7.50;1.45;;;;;;;;;;5044102;28;20080;-76
2021/08/13 07:39:13;;;;;;;8.02;2.78;;;;;;;;;;5030410;28;20117;-76
2021/08/13 07:41:58;;;;;;;7.10;1.60;;;;;;;;;;5041618;28;20086;-76
2021/08/13 07:44:42;;;;;;;6.70;1.38;;;;;;;;;;5045358;28;20044;-76
2021/08/13 07:47:27;;;;;;;5.45;1.60;;;;;;;;;;5050943;28;20039;-76
2021/08/13 07:50:12;;;;;;;7.72;1.52;;;;;;;;;;5032681;28;20057;-76
2021/08/13 07:52:56;;;;;;;5.43;2.10;;;;;;;;;;5043794;28;20072;-77
2021/08/13 07:55:41;;;;;;;5.15;1.63;;;;;;;;;;5033915;28;20052;-77
2021/08/13 07:58:25;;;;;;;11.82;1.73;;;;;;;;;;5033380;28;20039;-76
2021/08/13 08:01:10;;;;;;;8.25;1.52;;;;;;;;;;5029380;28;20149;-75
2021/08/13 08:03:54;;;;;;;6.65;1.77;;;;;;;;;;5011794;28;20501;-77
2021/08/13 08:06:39;;;;;;;5.63;2.03;;;;;;;;;;5041949;28;20408;-76
2021/08/13 08:09:24;;;;;;;6.53;1.55;;;;;;;;;;5030065;28;20402;-76
2021/08/13 08:12:09;;;;;;;6.47;1.45;;;;;;;;;;5020798;28;20038;-76
2021/08/13 08:14:53;;;;;;;4.32;1.35;;;;;;;;;;5061504;28;20479;-77
2021/08/13 08:17:38;;;;;;;5.72;1.42;;;;;;;;;;5043934;28;20055;-76
2021/08/13 08:20:23;;;;;;;8.95;1.60;;;;;;;;;;5057661;28;20048;-78
2021/08/13 08:23:07;;;;;;;7.22;1.67;;;;;;;;;;5045357;28;20071;-78
2021/08/13 08:25:52;;;;;;;6.10;1.40;;;;;;;;;;5026058;28;20524;-78
2021/08/13 08:28:42;;;;;;;4.50;1.40;;;;;;;;;;5054030;28;20043;-77
2021/08/13 08:31:26;;;;;;;6.72;1.73;;;;;;;;;;5016316;28;20032;-77
2021/08/13 08:34:11;;;;;;;5.80;1.58;;;;;;;;;;5045018;28;20055;-77
2021/08/13 08:36:55;;;;;;;6.78;1.48;;;;;;;;;;5038655;28;20590;-77
2021/08/13 08:39:40;;;;;;;5.70;1.58;;;;;;;;;;5062650;28;20078;-77
2021/08/13 08:42:25;;;;;;;4.97;1.50;;;;;;;;;;5041830;28;20091;-77
2021/08/13 08:45:09;;;;;;;7.53;1.50;;;;;;;;;;5060828;28;20119;-79
2021/08/13 08:47:55;;;;;;;4.85;1.50;;;;;;;;;;5053731;28;20087;-79
2021/08/13 08:50:41;;;;;;;4.43;1.38;;;;;;;;;;5040927;28;20500;-76
2021/08/13 08:53:26;;;;;;;5.47;1.40;;;;;;;;;;5040603;28;20082;-77
2021/08/13 08:56:11;;;;;;;4.82;1.42;;;;;;;;;;5024960;28;20064;-77
2021/08/13 08:58:55;;;;;;;3.83;1.35;;;;;;;;;;5025155;28;20040;-76
2021/08/13 09:01:39;;;;;;;3.55;1.58;;;;;;;;;;5025488;28;20054;-76
2021/08/13 09:04:24;;;;;;;4.85;1.70;;;;;;;;;;5057297;28;20051;-77
2021/08/13 09:07:08;;;;;;;5.60;1.40;;;;;;;;;;5031743;28;20035;-77
2021/08/13 09:09:53;;;;;;;6.28;1.63;;;;;;;;;;5028433;28;20059;-76
2021/08/13 09:12:38;;;;;;;4.07;1.23;;;;;;;;;;5038876;28;20128;-78
2021/08/13 09:15:26;;;;;;;6.78;1.60;;;;;;;;;;5028674;28;20114;-77
2021/08/13 09:18:12;;;;;;;4.30;1.35;;;;;;;;;;5036781;28;20044;-77
2021/08/13 09:20:58;;;;;;;5.80;1.70;;;;;;;;;;5025067;28;20086;-77
2021/08/13 09:23:43;;;;;;;6.35;1.40;;;;;;;;;;5044108;28;20135;-77
2021/08/13 09:26:28;;;;;;;4.82;1.40;;;;;;;;;;5042859;28;20130;-79
2021/08/13 09:29:19;;;;;;;8.70;1.85;;;;;;;;;;5042686;28;20098;-80
2021/08/13 09:32:04;;;;;;;6.95;1.40;;;;;;;;;;5029256;28;20101;-80
2021/08/13 09:34:49;;;;;;;6.50;1.38;;;;;;;;;;5042765;28;20111;-77
2021/08/13 09:37:34;;;;;;;4.72;1.50;;;;;;;;;;5028652;28;20220;-77
2021/08/13 09:40:19;;;;;;;6.28;1.52;;;;;;;;;;5008766;28;20044;-77
2021/08/13 09:43:04;;;;;;;5.22;1.30;;;;;;;;;;5036120;28;20067;-77
2021/08/13 09:46:03;;;;;;;6.40;1.50;;;;;;;;;;5042419;28;20093;-77
2021/08/13 09:48:48;;;;;;;4.07;1.70;;;;;;;;;;5031951;28;20094;-75
2021/08/13 09:51:35;;;;;;;3.63;1.40;;;;;;;;;;5022768;28;20041;-77
2021/08/13 09:54:20;;;;;;;4.38;1.35;;;;;;;;;;5046354;28;20139;-77
2021/08/13 09:57:08;;;;;;;4.32;1.42;;;;;;;;;;5046419;28;20036;-77
2021/08/13 10:00:03;;;;;;;4.45;1.67;;;;;;;;;;5043642;28;20045;-77
2021/08/13 10:02:48;;;;;;;4.80;1.48;;;;;;;;;;5031085;28;20043;-77
2021/08/13 10:05:33;;;;;;;4.45;1.48;;;;;;;;;;5036224;28;20048;-76
2021/08/13 10:08:18;;;;;;;5.63;1.38;;;;;;;;;;5037640;28;20038;-77
2021/08/13 10:11:10;;;;;;;5.38;1.75;;;;;;;;;;5041300;28;20052;-77
2021/08/13 10:13:55;;;;;;;4.32;1.40;;;;;;;;;;5026889;28;20749;-77
2021/08/13 10:16:40;;;;;;;6.05;1.52;;;;;;;;;;5046489;28;20099;-77
2021/08/13 10:19:25;;;;;;;6.22;1.50;;;;;;;;;;5026236;28;20039;-77
2021/08/13 10:22:09;;;;;;;6.20;1.75;;;;;;;;;;5035522;28;20044;-77
2021/08/13 10:24:53;;;;;;;6.22;1.70;;;;;;;;;;5047171;28;20052;-78
2021/08/13 10:27:38;;;;;;;6.40;1.60;;;;;;;;;;5025939;28;20601;-78
2021/08/13 10:30:23;;;;;;;3.30;1.20;;;;;;;;;;5051720;28;20039;-78
2021/08/13 10:33:07;;;;;;;5.57;1.63;;;;;;;;;;5049136;28;20481;-77
2021/08/13 10:35:54;;;;;;;4.53;1.50;;;;;;;;;;5031212;28;20044;-77
2021/08/13 10:38:39;;;;;;;8.00;1.75;;;;;;;;;;5030000;28;20039;-76
2021/08/13 10:41:24;;;;;;;2.83;1.20;;;;;;;;;;5034742;28;20071;-76
2021/08/13 10:44:09;;;;;;;5.22;1.83;;;;;;;;;;5057262;28;20846;-77
2021/08/13 10:46:54;;;;;;;4.78;1.38;;;;;;;;;;5039052;28;20078;-78
2021/08/13 10:49:39;;;;;;;4.95;1.70;;;;;;;;;;5053989;28;20052;-76
2021/08/13 10:52:40;;;;;;;3.10;1.27;;;;;;;;;;5049019;28;20172;-77
2021/08/13 10:55:41;;;;;;;4.57;1.23;;;;;;;;;;5031922;28;20920;-77
2021/08/13 10:58:42;;;;;;;2.75;1.38;;;;;;;;;;5041527;28;20775;-77
2021/08/13 11:01:26;;;;;;;2.70;1.13;;;;;;;;;;5054300;28;20113;-78
2021/08/13 11:04:11;;;;;;;3.45;1.40;;;;;;;;;;5011519;28;20040;-78
2021/08/13 11:06:55;;;;;;;3.97;1.50;;;;;;;;;;5045986;28;20062;-77
2021/08/13 11:09:40;;;;;;;7.60;1.58;;;;;;;;;;5062624;28;20079;-78
2021/08/13 11:12:25;;;;;;;5.85;1.30;;;;;;;;;;5048051;28;20039;-77
2021/08/13 11:15:19;;;;;;;5.07;1.17;;;;;;;;;;5044293;28;20056;-77
2021/08/13 11:18:24;;;;;;;4.95;1.50;;;;;;;;;;5045992;28;20189;-77
2021/08/13 11:21:11;;;;;;;3.78;1.30;;;;;;;;;;5034846;28;20047;-77
2021/08/13 11:23:57;;;;;;;3.88;1.83;;;;;;;;;;5040684;28;20167;-78
2021/08/13 11:26:51;;;;;;;4.28;1.42;;;;;;;;;;5031954;28;20594;-77
2021/08/13 11:29:38;;;;;;;4.78;1.50;;;;;;;;;;5054118;28;20075;-77
2021/08/13 11:32:24;;;;;;;6.95;1.60;;;;;;;;;;5062736;28;20504;-77
2021/08/13 11:35:10;;;;;;;5.03;1.73;;;;;;;;;;5060421;28;20051;-76
2021/08/13 11:37:55;;;;;;;5.63;1.83;;;;;;;;;;5043366;28;20043;-78
2021/08/13 11:40:39;;;;;;;4.93;1.50;;;;;;;;;;5037558;28;20044;-79
2021/08/13 11:43:24;;;;;;;3.58;1.55;;;;;;;;;;5046250;28;20054;-78
2021/08/13 11:46:09;;;;;;;5.43;1.60;;;;;;;;;;5037956;28;20104;-79
2021/08/13 11:48:54;;;;;;;6.80;1.65;;;;;;;;;;5044149;28;20047;-79
2021/08/13 11:51:38;;;;;;;3.22;1.30;;;;;;;;;;5057184;28;20048;-79
2021/08/13 11:54:27;;;;;;;4.18;1.50;;;;;;;;;;5037392;28;20497;-78
2021/08/13 11:57:21;;;;;;;4.68;1.45;;;;;;;;;;5064127;28;20507;-77
2021/08/13 12:00:09;;;;;;;3.70;1.58;;;;;;;;;;5063747;28;20701;-78
2021/08/13 12:03:00;;;;;;;4.88;1.40;;;;;;;;;;5062439;28;20114;-78
2021/08/13 12:05:45;;;;;;;3.92;1.27;;;;;;;;;;5044971;28;20067;-78
2021/08/13 12:08:30;;;;;;;3.88;1.50;;;;;;;;;;5023795;28;20112;-75
2021/08/13 12:11:24;;;;;;;4.80;1.70;;;;;;;;;;5032653;28;20480;-75
2021/08/13 12:14:11;;;;;;;4.95;1.63;;;;;;;;;;5044919;28;20184;-75
2021/08/13 12:16:56;;;;;;;5.60;1.70;;;;;;;;;;5048732;28;20043;-75
2021/08/13 12:19:41;;;;;;;3.45;1.40;;;;;;;;;;5039344;28;20134;-75
2021/08/13 12:22:31;;;;;;;5.55;1.73;;;;;;;;;;5062795;28;20048;-76
2021/08/13 12:25:15;;;;;;;5.13;1.90;;;;;;;;;;5064733;28;20047;-75
2021/08/13 12:28:00;;;;;;;2.42;1.42;;;;;;;;;;5049808;28;20050;-76
2021/08/13 12:30:45;;;;;;;3.85;1.60;;;;;;;;;;5062308;28;20120;-75
2021/08/13 12:33:29;;;;;;;4.15;1.73;;;;;;;;;;5024456;28;20049;-75
2021/08/13 12:36:15;;;;;;;4.03;1.60;;;;;;;;;;5028297;28;20044;-75
2021/08/13 12:39:00;;;;;;;2.78;1.42;;;;;;;;;;5035432;28;20079;-76
2021/08/13 12:41:44;;;;;;;5.28;1.67;;;;;;;;;;5053522;28;20745;-76
2021/08/13 12:44:29;;;;;;;4.88;1.70;;;;;;;;;;5039500;28;20447;-77
2021/08/13 12:47:13;;;;;;;5.80;1.75;;;;;;;;;;5036423;28;20856;-77
2021/08/13 12:49:58;;;;;;;6.20;1.63;;;;;;;;;;5052333;28;20389;-78
2021/08/13 12:52:59;;;;;;;4.07;1.60;;;;;;;;;;5060602;28;20127;-77
2021/08/13 12:55:45;;;;;;;4.75;2.03;;;;;;;;;;5022929;28;20176;-77
2021/08/13 12:58:33;;;;;;;6.18;1.80;;;;;;;;;;5037528;28;20043;-75
2021/08/13 13:01:22;;;;;;;4.03;1.45;;;;;;;;;;5052623;28;20062;-77
2021/08/13 13:04:16;;;;;;;3.05;1.40;;;;;;;;;;5043717;28;20132;-76
2021/08/13 13:07:01;;;;;;;5.28;1.75;;;;;;;;;;5048131;28;20040;-75
2021/08/13 13:09:45;;;;;;;4.53;1.40;;;;;;;;;;5044110;28;20099;-75
2021/08/13 13:12:30;;;;;;;5.25;1.83;;;;;;;;;;5047943;28;20612;-73
2021/08/13 13:15:26;;;;;;;5.85;2.03;;;;;;;;;;5047348;28;20128;-76
2021/08/13 13:18:10;;;;;;;5.13;1.70;;;;;;;;;;5036201;28;20040;-76
2021/08/13 13:20:54;;;;;;;3.30;1.60;;;;;;;;;;5009095;28;20048;-75
2021/08/13 13:23:39;;;;;;;5.88;1.70;;;;;;;;;;5043420;28;20040;-75
2021/08/13 13:26:24;;;;;;;5.53;1.75;;;;;;;;;;5057007;28;20043;-75
2021/08/13 13:29:10;;;;;;;6.40;2.20;;;;;;;;;;5040526;28;20040;-74
2021/08/13 13:31:54;;;;;;;3.20;1.50;;;;;;;;;;5027777;28;20051;-75
2021/08/13 13:34:39;;;;;;;3.58;1.73;;;;;;;;;;5037927;28;20480;-76
2021/08/13 13:37:23;;;;;;;4.07;1.70;;;;;;;;;;5032967;28;20044;-79
2021/08/13 13:40:08;;;;;;;6.13;1.70;;;;;;;;;;5032527;28;20102;-78
2021/08/13 13:42:53;;;;;;;3.88;1.52;;;;;;;;;;5041968;28;20044;-80
2021/08/13 13:45:39;;;;;;;8.88;1.85;;;;;;;;;;5023961;28;20060;-77
2021/08/13 13:48:24;;;;;;;4.65;2.13;;;;;;;;;;5043430;28;20040;-79
2021/08/13 13:51:08;;;;;;;5.60;1.50;;;;;;;;;;5020853;28;20481;-75
2021/08/13 13:53:53;;;;;;;4.78;1.70;;;;;;;;;;5055281;28;20150;-76
2021/08/13 13:56:37;;;;;;;4.88;1.92;;;;;;;;;;5061869;28;20040;-72
2021/08/13 13:59:22;;;;;;;3.92;1.70;;;;;;;;;;5048912;28;20421;-73
2021/08/13 14:02:06;;;;;;;4.70;1.70;;;;;;;;;;5021447;28;20195;-73
2021/08/13 14:04:51;;;;;;;5.43;1.85;;;;;;;;;;5061835;28;20066;-72
2021/08/13 14:07:36;;;;;;;6.82;1.70;;;;;;;;;;5049093;28;20048;-71
2021/08/13 14:10:22;;;;;;;6.95;2.10;;;;;;;;;;5044568;28;20086;-72
2021/08/13 14:13:07;;;;;;;4.88;1.70;;;;;;;;;;5044257;28;20125;-72
2021/08/13 14:15:51;;;;;;;4.85;1.90;;;;;;;;;;5061228;28;20056;-72
2021/08/13 14:18:36;;;;;;;5.75;1.85;;;;;;;;;;5057411;28;20094;-72
2021/08/13 14:21:20;;;;;;;4.97;1.70;;;;;;;;;;5054959;28;20571;-72
2021/08/13 14:24:05;;;;;;;6.90;1.90;;;;;;;;;;5058009;28;20103;-71
2021/08/13 14:26:50;;;;;;;4.57;2.00;;;;;;;;;;5053398;28;20044;-73
2021/08/13 14:29:35;;;;;;;4.68;1.60;;;;;;;;;;5037546;28;20421;-73
2021/08/13 14:32:19;;;;;;;5.63;1.83;;;;;;;;;;5043933;28;20048;-73
2021/08/13 14:35:04;;;;;;;6.80;1.77;;;;;;;;;;5041654;28;20052;-72
2021/08/13 14:37:48;;;;;;;4.82;1.90;;;;;;;;;;5031015;28;20043;-73
2021/08/13 14:40:33;;;;;;;4.70;2.00;;;;;;;;;;5059747;28;20098;-75
2021/08/13 14:43:18;;;;;;;9.13;2.00;;;;;;;;;;5037327;28;20082;-74
2021/08/13 14:46:02;;;;;;;5.75;2.67;;;;;;;;;;5036546;28;20107;-74
2021/08/13 14:48:47;;;;;;;6.45;1.90;;;;;;;;;;5041202;28;20128;-75
2021/08/13 14:51:32;;;;;;;4.70;1.90;;;;;;;;;;5035351;28;20039;-75
2021/08/13 14:54:16;;;;;;;5.65;1.80;;;;;;;;;;5046316;28;20055;-74
2021/08/13 14:57:01;;;;;;;6.20;2.00;;;;;;;;;;5032974;28;20345;-75
2021/08/13 14:59:45;;;;;;;3.53;1.80;;;;;;;;;;5031790;28;20094;-74
2021/08/13 15:02:30;;;;;;;5.20;2.20;;;;;;;;;;5045259;28;20087;-74
2021/08/13 15:05:14;;;;;;;5.60;1.92;;;;;;;;;;5044431;28;20051;-75
2021/08/13 15:07:59;;;;;;;5.15;1.90;;;;;;;;;;5044332;28;20177;-75
2021/08/13 15:10:43;;;;;;;6.30;1.88;;;;;;;;;;5043261;28;20044;-74
2021/08/13 15:13:28;;;;;;;4.07;1.70;;;;;;;;;;5039764;28;20044;-75
2021/08/13 15:16:13;;;;;;;3.67;1.83;;;;;;;;;;5042440;28;20047;-74
2021/08/13 15:18:57;;;;;;;5.53;1.90;;;;;;;;;;5041943;28;20135;-74
2021/08/13 15:21:43;;;;;;;4.75;1.92;;;;;;;;;;5044057;28;20815;-72
2021/08/13 15:24:28;;;;;;;4.38;1.80;;;;;;;;;;5045588;28;20585;-72
2021/08/13 15:27:13;;;;;;;6.90;1.88;;;;;;;;;;5050893;28;20035;-73
2021/08/13 15:29:57;;;;;;;4.20;1.80;;;;;;;;;;5051344;28;20134;-73
2021/08/13 15:32:42;;;;;;;4.28;1.60;;;;;;;;;;5037310;28;20148;-73
2021/08/13 15:35:26;;;;;;;3.78;1.88;;;;;;;;;;5050768;28;20418;-74
2021/08/13 15:38:11;;;;;;;4.00;2.00;;;;;;;;;;5046566;28;20039;-74
2021/08/13 15:40:56;;;;;;;4.78;1.75;;;;;;;;;;5028287;28;20472;-75
2021/08/13 15:43:40;;;;;;;4.18;1.90;;;;;;;;;;5028315;28;20039;-75
2021/08/13 15:46:25;;;;;;;5.78;1.58;;;;;;;;;;5042672;28;20421;-75
2021/08/13 15:49:09;;;;;;;3.00;1.50;;;;;;;;;;5044150;28;20043;-75
2021/08/13 15:51:54;;;;;;;5.60;1.98;;;;;;;;;;5047930;28;20043;-74
2021/08/13 15:54:38;;;;;;;4.03;1.67;;;;;;;;;;5042765;28;20091;-75
2021/08/13 15:57:23;;;;;;;5.20;1.90;;;;;;;;;;5044127;28;20506;-74
2021/08/13 16:00:08;;;;;;;4.75;1.80;;;;;;;;;;5043373;28;20075;-75
2021/08/13 16:02:52;;;;;;;5.57;2.20;;;;;;;;;;5035527;28;20084;-76
2021/08/13 16:05:37;;;;;;;5.93;1.90;;;;;;;;;;5056578;28;20035;-75
2021/08/13 16:08:21;;;;;;;3.50;1.85;;;;;;;;;;5041376;28;20093;-75
2021/08/13 16:11:06;;;;;;;6.10;2.08;;;;;;;;;;5055730;28;20039;-75
2021/08/13 16:13:51;;;;;;;6.00;1.80;;;;;;;;;;5052422;28;20039;-75
2021/08/13 16:16:35;;;;;;;6.35;2.00;;;;;;;;;;5043621;28;20043;-75
2021/08/13 16:19:20;;;;;;;4.57;1.90;;;;;;;;;;5047431;28;20035;-75
2021/08/13 16:22:05;;;;;;;3.55;1.77;;;;;;;;;;5060062;28;20093;-75
2021/08/13 16:24:50;;;;;;;3.72;1.95;;;;;;;;;;5064062;28;20066;-75
2021/08/13 16:27:35;;;;;;;4.15;1.77;;;;;;;;;;5050344;28;20042;-75
2021/08/13 16:30:20;;;;;;;6.10;2.08;;;;;;;;;;5057322;28;20043;-76
2021/08/13 16:33:04;;;;;;;5.07;1.83;;;;;;;;;;5058921;28;20853;-79